Alleene, Arkansas
Current Conditions -  °F | °C
As of 4:22 AM on Monday 22 Dec 2014 (Local Time) from KDEQ Reporting Station
Overcast Overcast  
Wind Chill: 50°   Ceiling: 1400
Heat Index: 50°   Visibility: 7mi
Dew Point: 47°   Wind: 6mph
Humidity: 89%   Direction: 130°SE
Pressure: 29.7"   Gusts: NA
Location:  33.77°N, 94.26°W
Report Text: KDEQ 221022Z AUTO 13005KT 7SM OVC014 10/08 A2970 RMK AO2 T01000083 $
Loading
Personal Weather Stations






























Interactive Weather Map New forecast layout! Learn more

10-Day Weather Forecast

Advertisements
Track Severe Weather on mobile